createdAt,value
2022-12-12T00:01:37.876Z,18.17
2022-12-12T00:04:06.489Z,19.63
2022-12-12T00:06:35.157Z,19.90
2022-12-12T00:09:05.369Z,21.40
2022-12-12T00:11:34.075Z,20.55
2022-12-12T00:14:02.504Z,21.63
2022-12-12T00:16:31.693Z,20.38
2022-12-12T00:19:00.682Z,21.88
2022-12-12T00:21:30.351Z,22.50
2022-12-12T00:23:59.311Z,19.42
2022-12-12T00:26:30.634Z,20.83
2022-12-12T00:29:00.136Z,20.75
2022-12-12T00:31:29.174Z,22.70
2022-12-12T00:33:57.938Z,21.73
2022-12-12T00:39:30.503Z,18.92
2022-12-12T00:42:01.394Z,19.08
2022-12-12T00:44:30.618Z,23.30
2022-12-12T00:46:59.548Z,21.38
2022-12-12T00:49:28.977Z,18.90
2022-12-12T00:51:59.870Z,20.08
2022-12-12T00:54:28.306Z,19.73
2022-12-12T00:56:56.788Z,19.13
2022-12-12T00:59:26.797Z,19.80
2022-12-12T01:01:55.353Z,24.20
2022-12-12T01:04:23.930Z,19.27
2022-12-12T01:06:52.456Z,25.90
2022-12-12T01:09:21.228Z,22.70
2022-12-12T01:11:49.788Z,20.15
2022-12-12T01:14:19.378Z,23.55
2022-12-12T01:16:51.190Z,20.83
2022-12-12T01:19:19.713Z,20.65
2022-12-12T01:21:48.294Z,21.80
2022-12-12T01:24:17.984Z,20.40
2022-12-12T01:26:46.393Z,22.20
2022-12-12T01:29:15.002Z,22.65
2022-12-12T01:31:43.632Z,21.90
2022-12-12T01:34:13.691Z,22.55
2022-12-12T01:36:42.191Z,20.73
2022-12-12T01:39:10.664Z,22.95
2022-12-12T01:41:39.254Z,22.77
2022-12-12T01:44:13.551Z,25.73
2022-12-12T01:46:46.284Z,24.77
2022-12-12T01:49:21.301Z,24.88
2022-12-12T01:51:51.793Z,26.17
2022-12-12T01:54:22.174Z,25.50
2022-12-12T01:56:51.547Z,40.70
2022-12-12T01:59:21.960Z,29.40
2022-12-12T02:01:51.200Z,21.38
2022-12-12T02:04:22.016Z,26.30
2022-12-12T02:06:51.136Z,30.58
2022-12-12T02:09:21.229Z,32.25
2022-12-12T02:11:50.739Z,27.00
2022-12-12T02:14:21.043Z,26.58
2022-12-12T02:16:55.220Z,21.40
2022-12-12T02:19:37.241Z,18.98
2022-12-12T02:22:09.786Z,22.23
2022-12-12T02:24:46.588Z,20.92
2022-12-12T02:27:25.140Z,20.48
2022-12-12T02:30:11.582Z,21.60
2022-12-12T02:32:55.371Z,24.08
2022-12-12T02:35:30.479Z,21.38
2022-12-12T02:38:02.673Z,21.83
2022-12-12T02:40:37.074Z,19.77
2022-12-12T02:43:10.214Z,21.02
2022-12-12T02:45:40.699Z,23.30
2022-12-12T02:48:13.152Z,19.83
2022-12-12T02:50:42.617Z,18.85
2022-12-12T02:53:11.474Z,20.65
2022-12-12T02:55:39.897Z,20.92
2022-12-12T02:58:08.953Z,22.23
2022-12-12T03:00:42.269Z,22.08
2022-12-12T03:03:36.086Z,19.77
2022-12-12T03:06:28.740Z,24.13
2022-12-12T03:09:01.849Z,21.63
2022-12-12T03:11:38.322Z,23.77
2022-12-12T03:14:10.643Z,24.73
2022-12-12T03:16:40.301Z,24.40
2022-12-12T03:19:11.264Z,23.52
2022-12-12T03:21:41.726Z,23.42
2022-12-12T03:24:12.895Z,21.08
2022-12-12T03:26:45.012Z,22.92
2022-12-12T03:29:16.521Z,24.52
2022-12-12T03:31:47.425Z,20.48
2022-12-12T03:34:19.407Z,22.48
2022-12-12T03:36:49.853Z,22.90
2022-12-12T03:39:25.370Z,24.67
2022-12-12T03:41:56.914Z,20.92
2022-12-12T03:44:30.111Z,22.75
2022-12-12T03:47:01.128Z,23.17
2022-12-12T03:49:32.245Z,20.92
2022-12-12T03:52:03.002Z,21.70
2022-12-12T03:54:33.519Z,22.00
2022-12-12T03:57:03.853Z,22.25
2022-12-12T03:59:34.366Z,20.33
2022-12-12T04:02:04.741Z,22.65
2022-12-12T04:04:38.795Z,25.15
2022-12-12T04:07:11.101Z,23.98
2022-12-12T04:09:57.469Z,24.23
2022-12-12T04:12:46.571Z,24.75
2022-12-12T04:15:21.419Z,23.20
2022-12-12T04:17:59.091Z,25.88
2022-12-12T04:20:48.816Z,19.60
2022-12-12T04:23:21.654Z,23.10
2022-12-12T04:26:13.720Z,24.30
2022-12-12T04:28:43.454Z,20.83
2022-12-12T04:31:13.365Z,21.25
2022-12-12T04:33:45.664Z,24.50
2022-12-12T04:36:16.964Z,21.75
2022-12-12T04:38:47.261Z,23.38
2022-12-12T04:41:17.638Z,23.30
2022-12-12T04:43:47.858Z,29.60
2022-12-12T04:46:18.250Z,25.50
2022-12-12T04:48:50.697Z,23.77
2022-12-12T04:51:25.530Z,33.22
2022-12-12T04:53:56.836Z,24.92
2022-12-12T04:56:30.852Z,25.30
2022-12-12T04:58:59.855Z,25.23
2022-12-12T05:01:34.746Z,24.35
2022-12-12T05:04:04.126Z,25.48
2022-12-12T05:06:36.282Z,26.42
2022-12-12T05:09:05.221Z,24.88
2022-12-12T05:11:35.548Z,23.23
2022-12-12T05:14:04.322Z,23.17
2022-12-12T05:16:35.380Z,24.88
2022-12-12T05:19:04.532Z,24.70
2022-12-12T05:21:34.767Z,26.42
2022-12-12T05:24:03.362Z,27.00
2022-12-12T05:26:32.968Z,23.27
2022-12-12T05:29:06.875Z,23.77
2022-12-12T05:31:36.296Z,22.67
2022-12-12T05:34:05.135Z,24.38
2022-12-12T05:36:35.281Z,26.63
2022-12-12T05:39:03.919Z,24.85
2022-12-12T05:41:32.714Z,24.85
2022-12-12T05:44:01.259Z,22.52
2022-12-12T05:46:32.749Z,23.45
2022-12-12T05:49:01.580Z,24.25
2022-12-12T05:51:30.596Z,26.15
2022-12-12T05:54:00.611Z,27.40
2022-12-12T05:56:29.240Z,24.63
2022-12-12T05:58:58.048Z,27.02
2022-12-12T06:01:26.561Z,28.00
2022-12-12T06:03:55.509Z,28.55
2022-12-12T06:06:26.503Z,23.42
2022-12-12T06:08:55.115Z,25.58
2022-12-12T06:11:25.661Z,29.33
2022-12-12T06:13:54.278Z,27.42
2022-12-12T06:16:22.961Z,26.65
2022-12-12T06:18:54.907Z,27.67
2022-12-12T06:21:23.690Z,27.42
2022-12-12T06:23:52.303Z,34.60
2022-12-12T06:26:21.756Z,31.30
2022-12-12T06:28:53.053Z,31.10
2022-12-12T06:31:21.563Z,33.15
2022-12-12T06:33:50.171Z,32.20
2022-12-12T06:36:24.236Z,30.38
2022-12-12T06:38:53.316Z,30.65
2022-12-12T06:41:22.119Z,35.80
2022-12-12T06:43:52.316Z,32.38
2022-12-12T06:46:24.366Z,37.65
2022-12-12T06:48:55.478Z,34.88
2022-12-12T06:51:24.938Z,35.08
2022-12-12T06:54:02.613Z,31.50
2022-12-12T06:56:35.400Z,35.63
2022-12-12T06:59:05.386Z,34.53
2022-12-12T07:01:34.078Z,36.55
2022-12-12T07:04:03.925Z,32.45
2022-12-12T07:06:33.961Z,33.92
2022-12-12T07:09:05.003Z,29.80
2022-12-12T07:11:38.862Z,35.03
2022-12-12T07:14:15.012Z,32.63
2022-12-12T07:16:46.247Z,36.97
2022-12-12T07:19:22.928Z,31.90
2022-12-12T07:22:02.842Z,31.85
2022-12-12T07:25:02.308Z,32.65
2022-12-12T07:27:58.699Z,38.45
2022-12-12T07:30:35.561Z,34.67
2022-12-12T07:33:13.686Z,36.15
2022-12-12T07:35:42.595Z,36.65
2022-12-12T07:38:11.820Z,33.97
2022-12-12T07:47:24.326Z,36.65
2022-12-12T07:50:53.442Z,35.70
2022-12-12T07:53:43.423Z,35.25
2022-12-12T07:59:51.970Z,36.50
2022-12-12T08:02:22.475Z,36.45
2022-12-12T08:05:01.278Z,34.45
2022-12-12T08:07:56.956Z,39.10
2022-12-12T08:10:37.570Z,31.25
2022-12-12T08:13:42.156Z,38.65
2022-12-12T08:16:22.388Z,42.58
2022-12-12T08:18:55.224Z,38.88
2022-12-12T08:21:36.518Z,40.08
2022-12-12T08:24:13.310Z,39.95
2022-12-12T08:27:08.551Z,37.47
2022-12-12T08:32:47.010Z,41.50
2022-12-12T08:35:49.520Z,39.03
2022-12-12T08:38:18.160Z,40.60
2022-12-12T08:43:56.815Z,38.75
2022-12-12T08:46:37.594Z,40.25
2022-12-12T08:49:31.870Z,39.47
2022-12-12T08:52:14.396Z,38.05
2022-12-12T08:55:22.825Z,35.97
2022-12-12T08:57:59.224Z,37.95
2022-12-12T09:03:54.020Z,37.90
2022-12-12T09:06:36.592Z,36.22
2022-12-12T09:09:15.352Z,39.65
2022-12-12T09:11:50.614Z,38.10
2022-12-12T09:14:35.112Z,38.85
2022-12-12T09:17:09.897Z,40.50
2022-12-12T09:19:47.698Z,36.67
2022-12-12T09:22:25.626Z,37.33
2022-12-12T09:25:09.344Z,47.28
2022-12-12T09:28:09.322Z,41.03
2022-12-12T09:30:38.671Z,37.58
2022-12-12T09:36:14.842Z,36.47
2022-12-12T09:39:22.395Z,37.28
2022-12-12T09:42:02.997Z,41.75
2022-12-12T09:44:46.424Z,39.78
2022-12-12T09:47:34.881Z,34.50
2022-12-12T09:50:18.556Z,37.88
2022-12-12T09:52:56.785Z,39.53
2022-12-12T09:55:45.435Z,35.17
2022-12-12T09:58:36.202Z,39.35
2022-12-12T10:01:18.005Z,40.28
2022-12-12T10:04:11.976Z,42.55
2022-12-12T10:06:53.200Z,38.22
2022-12-12T10:09:50.006Z,39.03
2022-12-12T10:12:29.530Z,35.95
2022-12-12T10:15:10.282Z,36.45
2022-12-12T10:17:45.063Z,39.22
2022-12-12T10:20:36.231Z,40.00
2022-12-12T10:23:23.249Z,43.60
2022-12-12T10:26:03.662Z,35.92
2022-12-12T10:34:32.350Z,37.97
2022-12-12T10:37:13.646Z,33.30
2022-12-12T10:39:56.021Z,30.63
2022-12-12T10:42:39.244Z,32.20
2022-12-12T10:45:35.637Z,34.58
2022-12-12T10:48:29.843Z,34.53
2022-12-12T10:51:23.544Z,26.67
2022-12-12T10:54:05.987Z,29.20
2022-12-12T10:56:46.015Z,33.00
2022-12-12T10:59:23.213Z,31.80
2022-12-12T11:02:34.049Z,30.20
2022-12-12T11:05:11.762Z,25.60
2022-12-12T11:07:46.076Z,26.90
2022-12-12T11:10:34.743Z,24.85
2022-12-12T11:13:04.155Z,24.13
2022-12-12T11:15:43.800Z,25.02
2022-12-12T11:19:08.411Z,26.80
2022-12-12T11:21:56.701Z,28.80
2022-12-12T11:24:29.072Z,29.30
2022-12-12T11:27:01.608Z,23.98
2022-12-12T11:29:35.310Z,20.55
2022-12-12T11:32:13.678Z,22.83
2022-12-12T11:34:46.973Z,21.70
2022-12-12T11:37:29.960Z,21.65
2022-12-12T11:40:10.275Z,22.95
2022-12-12T11:42:39.383Z,21.63
2022-12-12T11:45:31.486Z,21.27
2022-12-12T11:48:08.731Z,23.88
2022-12-12T11:50:49.244Z,27.75
2022-12-12T11:53:19.695Z,22.63
2022-12-12T11:55:55.053Z,21.35
2022-12-12T11:58:27.198Z,22.13
2022-12-12T12:00:58.406Z,19.77
2022-12-12T12:03:53.779Z,20.90
2022-12-12T12:06:37.318Z,21.58
2022-12-12T12:09:16.249Z,22.60
2022-12-12T12:11:55.495Z,25.45
2022-12-12T12:14:50.069Z,24.15
2022-12-12T12:17:21.893Z,26.15
2022-12-12T12:20:04.750Z,25.10
2022-12-12T12:22:45.863Z,24.23
2022-12-12T12:25:30.157Z,23.10
2022-12-12T12:28:21.913Z,22.55
2022-12-12T12:30:57.989Z,25.35
2022-12-12T12:33:32.565Z,23.35
2022-12-12T12:36:30.801Z,21.17
2022-12-12T12:39:09.561Z,22.13
2022-12-12T12:42:04.346Z,22.85
2022-12-12T12:44:37.786Z,21.50
2022-12-12T12:47:15.689Z,20.17
2022-12-12T12:49:48.322Z,20.92
2022-12-12T12:52:22.755Z,19.75
2022-12-12T12:54:53.929Z,19.10
2022-12-12T12:57:30.819Z,18.73
2022-12-12T13:00:10.042Z,20.05
2022-12-12T13:02:48.067Z,17.45
2022-12-12T13:05:19.240Z,18.88
2022-12-12T13:07:53.834Z,20.00
2022-12-12T13:10:29.990Z,17.75
2022-12-12T13:13:14.699Z,21.52
2022-12-12T13:15:44.380Z,20.35
2022-12-12T13:18:13.629Z,22.90
2022-12-12T13:20:43.364Z,22.02
2022-12-12T13:23:31.128Z,19.85
2022-12-12T13:26:03.791Z,26.17
2022-12-12T13:28:39.319Z,24.65
2022-12-12T13:31:23.195Z,19.98
2022-12-12T13:33:57.487Z,18.77
2022-12-12T13:36:30.216Z,20.65
2022-12-12T13:39:03.157Z,20.95
2022-12-12T13:41:49.154Z,20.98
2022-12-12T13:44:36.732Z,17.10
2022-12-12T13:47:08.278Z,19.02
2022-12-12T13:49:48.164Z,24.48
2022-12-12T13:52:24.123Z,17.88
2022-12-12T13:55:01.307Z,19.20
2022-12-12T13:57:35.413Z,21.77
2022-12-12T14:00:30.367Z,20.65
2022-12-12T14:03:17.649Z,21.42
2022-12-12T14:05:51.100Z,28.48
2022-12-12T14:08:29.470Z,23.13
2022-12-12T14:11:19.642Z,28.40
2022-12-12T14:13:56.304Z,29.33
2022-12-12T14:16:28.649Z,29.08
2022-12-12T14:19:15.408Z,25.20
2022-12-12T14:21:47.815Z,25.55
2022-12-12T14:24:41.797Z,21.98
2022-12-12T14:27:15.813Z,26.23
2022-12-12T14:29:46.186Z,25.98
2022-12-12T14:32:39.099Z,25.90
2022-12-12T14:35:19.217Z,21.92
2022-12-12T14:37:52.669Z,26.77
2022-12-12T14:40:23.736Z,22.60
2022-12-12T14:43:20.126Z,27.77
2022-12-12T14:45:56.666Z,26.58
2022-12-12T14:48:30.302Z,27.30
2022-12-12T14:51:03.218Z,22.63
2022-12-12T14:53:34.596Z,24.27
2022-12-12T14:56:07.921Z,24.95
2022-12-12T14:58:38.454Z,24.63
2022-12-12T15:01:10.184Z,25.27
2022-12-12T15:03:41.066Z,27.88
2022-12-12T15:06:36.090Z,23.52
2022-12-12T15:09:18.774Z,28.42
2022-12-12T15:11:47.953Z,24.23
2022-12-12T15:14:21.644Z,23.00
2022-12-12T15:16:53.306Z,30.17
2022-12-12T15:19:37.346Z,27.02
2022-12-12T15:24:53.285Z,23.58
2022-12-12T15:27:41.617Z,26.52
2022-12-12T15:30:15.821Z,26.63
2022-12-12T15:32:47.783Z,25.55
2022-12-12T15:35:18.554Z,24.67
2022-12-12T15:37:55.673Z,25.35
2022-12-12T15:40:46.254Z,25.73
2022-12-12T15:43:16.280Z,27.92
2022-12-12T15:45:48.150Z,27.67
2022-12-12T15:48:27.943Z,27.73
2022-12-12T15:50:59.194Z,26.42
2022-12-12T15:53:33.434Z,24.52
2022-12-12T15:56:03.870Z,27.17
2022-12-12T15:58:39.595Z,24.65
2022-12-12T16:01:20.043Z,36.17
2022-12-12T16:04:17.242Z,32.17
2022-12-12T16:06:48.728Z,41.20
2022-12-12T16:09:36.036Z,51.25
2022-12-12T16:12:06.727Z,37.45
2022-12-12T16:14:56.154Z,33.58
2022-12-12T16:17:30.311Z,34.10
2022-12-12T16:20:02.817Z,34.20
2022-12-12T16:22:50.326Z,37.60
2022-12-12T16:25:28.538Z,30.65
2022-12-12T16:28:00.700Z,36.60
2022-12-12T16:30:31.749Z,37.05
2022-12-12T16:33:03.217Z,39.30
2022-12-12T16:35:42.750Z,44.95
2022-12-12T16:38:23.643Z,37.42
2022-12-12T16:41:03.449Z,36.97
2022-12-12T16:43:43.719Z,38.33
2022-12-12T16:46:31.853Z,37.60
2022-12-12T16:49:04.789Z,35.70
2022-12-12T16:51:39.874Z,39.10
2022-12-12T16:54:13.838Z,39.10
2022-12-12T16:56:45.924Z,40.17
2022-12-12T16:59:14.511Z,31.40
2022-12-12T17:01:47.696Z,28.83
2022-12-12T17:04:29.168Z,28.63
2022-12-12T17:06:57.818Z,34.88
2022-12-12T17:09:30.123Z,33.30
2022-12-12T17:11:59.122Z,33.53
2022-12-12T17:14:28.240Z,32.70
2022-12-12T17:16:58.693Z,33.50
2022-12-12T17:19:29.295Z,27.88
2022-12-12T17:21:58.224Z,28.70
2022-12-12T17:24:28.316Z,28.20
2022-12-12T17:26:57.420Z,32.10
2022-12-12T17:29:26.210Z,24.58
2022-12-12T17:31:55.138Z,27.45
2022-12-12T17:34:26.097Z,30.23
2022-12-12T17:36:54.934Z,27.75
2022-12-12T17:39:23.723Z,32.67
2022-12-12T17:41:56.123Z,37.90
2022-12-12T17:44:25.564Z,33.03
2022-12-12T17:46:54.154Z,37.00
2022-12-12T17:49:25.772Z,33.92
2022-12-12T17:51:55.573Z,34.05
2022-12-12T17:54:27.074Z,27.02
2022-12-12T17:56:59.297Z,36.00
2022-12-12T17:59:30.299Z,38.22
2022-12-12T18:01:58.837Z,34.40
2022-12-12T18:04:30.197Z,34.35
2022-12-12T18:07:02.308Z,33.20
2022-12-12T18:09:33.575Z,34.38
2022-12-12T18:12:06.172Z,33.67
2022-12-12T18:14:44.507Z,33.72
2022-12-12T18:17:35.601Z,42.22
2022-12-12T18:20:26.611Z,42.00
2022-12-12T18:23:04.143Z,38.50
2022-12-12T18:25:41.852Z,37.53
2022-12-12T18:28:14.334Z,38.30
2022-12-12T18:30:50.383Z,40.10
2022-12-12T18:33:24.788Z,40.05
2022-12-12T18:35:55.537Z,34.58
2022-12-12T18:38:24.039Z,36.10
2022-12-12T18:40:54.118Z,41.05
2022-12-12T18:43:26.407Z,37.58
2022-12-12T18:45:55.758Z,31.33
2022-12-12T18:48:24.805Z,33.28
2022-12-12T18:50:53.677Z,48.35
2022-12-12T18:53:22.511Z,47.50
2022-12-12T18:55:51.707Z,41.28
2022-12-12T18:58:36.974Z,41.13
2022-12-12T19:01:06.882Z,37.60
2022-12-12T19:03:35.939Z,34.90
2022-12-12T19:06:06.131Z,32.03
2022-12-12T19:08:36.574Z,33.15
2022-12-12T19:11:06.570Z,39.63
2022-12-12T19:13:36.943Z,39.50
2022-12-12T19:16:08.247Z,31.13
2022-12-12T19:18:36.970Z,35.95
2022-12-12T19:21:08.757Z,34.28
2022-12-12T19:23:37.710Z,33.17
2022-12-12T19:26:07.246Z,33.92
2022-12-12T19:28:37.767Z,34.20
2022-12-12T19:31:10.212Z,33.50
2022-12-12T19:36:16.521Z,31.67
2022-12-12T19:38:45.629Z,33.65
2022-12-12T19:41:15.250Z,37.13
2022-12-12T19:43:46.616Z,51.83
2022-12-12T19:46:16.450Z,48.10
2022-12-12T19:48:45.453Z,45.78
2022-12-12T19:51:17.628Z,41.05
2022-12-12T19:53:47.532Z,36.90
2022-12-12T19:56:23.188Z,34.10
2022-12-12T19:58:54.828Z,38.33
2022-12-12T20:01:28.303Z,32.92
2022-12-12T20:03:59.536Z,38.38
2022-12-12T20:06:28.648Z,40.53
2022-12-12T20:09:00.245Z,35.13
2022-12-12T20:11:28.773Z,42.13
2022-12-12T20:14:01.578Z,35.03
2022-12-12T20:16:44.380Z,45.67
2022-12-12T20:19:31.290Z,38.50
2022-12-12T20:22:04.165Z,33.75
2022-12-12T20:24:34.156Z,26.02
2022-12-12T20:27:08.293Z,35.13
2022-12-12T20:29:41.080Z,39.25
2022-12-12T20:32:11.313Z,43.40
2022-12-12T20:34:42.860Z,56.88
2022-12-12T20:37:16.645Z,54.38
2022-12-12T20:39:48.882Z,47.50
2022-12-12T20:42:20.951Z,46.20
2022-12-12T20:44:57.985Z,37.72
2022-12-12T20:47:29.929Z,32.42
2022-12-12T20:50:00.049Z,29.35
2022-12-12T20:52:31.926Z,30.20
2022-12-12T20:55:00.757Z,31.67
2022-12-12T20:57:29.608Z,35.00
2022-12-12T21:00:04.078Z,35.92
2022-12-12T21:02:36.137Z,39.05
2022-12-12T21:05:08.003Z,42.90
2022-12-12T21:07:39.987Z,35.72
2022-12-12T21:10:10.067Z,37.50
2022-12-12T21:12:57.383Z,31.95
2022-12-12T21:15:44.929Z,36.53
2022-12-12T21:18:19.612Z,34.72
2022-12-12T21:20:55.785Z,34.90
2022-12-12T21:23:24.617Z,30.42
2022-12-12T21:25:55.307Z,30.45
2022-12-12T21:28:44.272Z,38.33
2022-12-12T21:31:17.929Z,33.05
2022-12-12T21:36:24.714Z,36.30
2022-12-12T21:38:53.912Z,35.83
2022-12-12T21:41:25.670Z,31.90
2022-12-12T21:43:54.868Z,32.63
2022-12-12T21:46:29.399Z,30.42
2022-12-12T21:49:17.751Z,34.47
2022-12-12T21:51:54.673Z,36.55
2022-12-12T21:54:24.957Z,34.97
2022-12-12T21:56:58.401Z,36.30
2022-12-12T21:59:46.241Z,30.23
2022-12-12T22:02:27.825Z,30.40
2022-12-12T22:04:56.408Z,33.10
2022-12-12T22:07:25.812Z,31.30
2022-12-12T22:09:57.175Z,34.53
2022-12-12T22:12:41.043Z,36.55
2022-12-12T22:15:13.640Z,34.92
2022-12-12T22:17:43.959Z,39.85
2022-12-12T22:20:14.577Z,39.25
2022-12-12T22:22:47.837Z,38.20
2022-12-12T22:25:16.813Z,36.45
2022-12-12T22:27:45.846Z,41.33
2022-12-12T22:30:18.865Z,42.28
2022-12-12T22:32:50.732Z,35.00
2022-12-12T22:35:37.133Z,39.58
2022-12-12T22:38:09.038Z,37.30
2022-12-12T22:40:40.431Z,42.08
2022-12-12T22:43:19.226Z,40.35
2022-12-12T22:46:02.122Z,35.15
2022-12-12T22:48:43.956Z,40.17
2022-12-12T22:51:28.446Z,42.80
2022-12-12T22:54:02.447Z,40.20
2022-12-12T22:56:44.465Z,36.92
2022-12-12T22:59:32.103Z,34.38
2022-12-12T23:02:09.579Z,35.22
2022-12-12T23:04:57.766Z,33.92
2022-12-12T23:07:33.078Z,38.45
2022-12-12T23:10:18.005Z,34.92
2022-12-12T23:12:49.498Z,33.50
2022-12-12T23:15:25.312Z,37.40
2022-12-12T23:20:46.839Z,36.70
2022-12-12T23:23:33.372Z,35.33
2022-12-12T23:29:07.310Z,30.55
2022-12-12T23:31:47.811Z,31.15
2022-12-12T23:34:34.518Z,31.27
2022-12-12T23:37:20.413Z,24.85
2022-12-12T23:39:52.357Z,27.52
2022-12-12T23:42:39.231Z,25.42
2022-12-12T23:45:12.907Z,29.92
2022-12-12T23:47:51.556Z,29.48
2022-12-12T23:50:44.025Z,26.08
2022-12-12T23:53:27.031Z,28.23
2022-12-12T23:55:58.916Z,27.55
2022-12-12T23:58:37.320Z,24.98
